createdAt,value
2022-08-20T05:18:33.384Z,4.60
2022-08-20T05:21:05.733Z,5.57
2022-08-20T05:23:34.005Z,5.60
2022-08-20T05:26:01.497Z,5.23
2022-08-20T05:28:32.732Z,5.43
2022-08-20T05:31:07.175Z,5.80
2022-08-20T05:33:34.351Z,6.27
2022-08-20T05:36:02.057Z,6.90
2022-08-20T05:38:30.981Z,7.20
2022-08-20T05:40:58.170Z,7.67
2022-08-20T05:43:25.462Z,7.50
2022-08-20T05:45:56.594Z,15.50
2022-08-20T05:48:25.434Z,16.77
2022-08-20T05:50:54.440Z,16.73
2022-08-20T05:53:22.174Z,12.73
2022-08-20T05:55:49.501Z,12.50
2022-08-20T05:58:22.328Z,9.47
2022-08-20T06:00:50.218Z,8.43
2022-08-20T06:03:36.124Z,9.03
2022-08-20T06:06:04.381Z,7.87
2022-08-20T06:08:45.124Z,8.27
2022-08-20T06:11:12.287Z,8.83
2022-08-20T06:13:39.435Z,8.57
2022-08-20T06:16:06.918Z,9.17
2022-08-20T06:18:35.330Z,8.57
2022-08-20T06:21:02.544Z,8.67
2022-08-20T06:23:54.277Z,8.67
2022-08-20T06:26:16.863Z,8.53
2022-08-20T06:28:56.947Z,8.20
2022-08-20T06:31:24.396Z,7.77
2022-08-20T06:33:51.576Z,8.37
2022-08-20T06:36:19.171Z,7.90
2022-08-20T06:38:46.623Z,8.57
2022-08-20T06:41:14.149Z,8.33
2022-08-20T12:01:13.953Z,16.77
2022-08-20T12:03:41.103Z,17.00
2022-08-20T12:06:08.405Z,18.20
2022-08-20T12:08:35.562Z,18.30
2022-08-20T12:11:03.378Z,17.93
2022-08-20T12:13:47.443Z,18.23
2022-08-20T12:16:16.486Z,17.80
2022-08-20T12:18:43.663Z,17.23
2022-08-20T12:21:10.899Z,17.80
2022-08-20T12:23:38.078Z,18.10
2022-08-20T12:26:05.712Z,17.63
2022-08-20T12:28:32.933Z,19.03
2022-08-20T12:31:00.110Z,18.93
2022-08-20T12:33:27.283Z,18.50
2022-08-20T12:35:54.489Z,18.47
2022-08-20T12:38:21.753Z,18.40
2022-08-20T12:40:48.986Z,18.17
2022-08-20T12:43:16.139Z,19.00
2022-08-20T12:45:43.352Z,18.20
2022-08-20T12:48:11.968Z,18.67
2022-08-20T12:50:40.084Z,17.53
2022-08-20T12:53:07.442Z,17.20
2022-08-20T12:55:34.793Z,17.27
2022-08-20T12:58:02.940Z,17.40
2022-08-20T13:00:33.658Z,16.53
2022-08-20T13:03:02.289Z,17.33
2022-08-20T13:05:30.277Z,16.57
2022-08-20T13:07:57.978Z,17.17
2022-08-20T13:10:26.851Z,16.63
2022-08-20T13:12:54.495Z,17.10
2022-08-20T20:29:51.831Z,12.47
2022-08-20T20:32:24.062Z,12.27
2022-08-20T20:34:56.322Z,12.50
2022-08-20T20:37:50.809Z,12.63
2022-08-20T20:40:30.482Z,12.80
2022-08-20T20:43:08.230Z,13.17
2022-08-20T20:45:41.367Z,13.20
2022-08-20T20:48:28.741Z,12.30
2022-08-20T20:51:01.550Z,13.13
2022-08-20T20:53:51.070Z,13.63
2022-08-20T20:56:26.667Z,14.07
2022-08-20T20:58:55.894Z,13.53
2022-08-20T21:01:47.907Z,13.20
2022-08-20T21:04:10.684Z,13.10
2022-08-20T21:06:38.100Z,13.53
2022-08-20T21:09:05.246Z,13.80
2022-08-20T21:11:32.454Z,12.80
2022-08-20T21:13:59.600Z,12.60
2022-08-20T21:16:26.795Z,12.20
2022-08-20T21:18:53.930Z,12.20
2022-08-20T21:21:21.079Z,12.53
2022-08-20T21:23:48.222Z,12.60
